^^
Saratoga-Weather Station Historical Data
Daily Summary for February 28, 2021 Units:  Metric    English   Both
Daily Weekly Monthly Yearly Custom
  High: Low: Average:
Temperature: 10.8 °C 7.8 °C 9.3 °C
Dew Point: 9.7 °C 6.1 °C 7.9 °C
Humidity: 97% 75% 91%
Wind Speed: 27.4km/h km/h 7.3km/h
Wind Gust: 37km/h - -
Wind- - SW
Pressure: 1002.7 hPa 993.6 hPa -
Precipitation: 16.5 mm    
Historical Graphs
 
 
Tabular Data for February 28, 2021
Time Temperature Dew Point Pressure Wind Wind Speed Wind Gust Humidity Rainfall Rate (Hourly) solar
00:02 9.3 °C 8.2 °C 998.6 hPa North 6.4 km/h 11.3 km/h 93% 0.0 mm 0 W/m2
00:07 9.2 °C 8.1 °C 998.6 hPa NNE 3.2 km/h 4.8 km/h 93% 0.0 mm 0 W/m2
00:12 9.2 °C 8.1 °C 998.6 hPa North 1.4 km/h 8 km/h 93% 0.0 mm 0 W/m2
00:17 9.2 °C 8.1 °C 998.3 hPa NNE 3.2 km/h 6.4 km/h 93% 0.0 mm 0 W/m2
00:22 9.2 °C 8 °C 998.3 hPa NNW 3.2 km/h 6.4 km/h 92% 0.0 mm 0 W/m2
00:27 9.2 °C 8 °C 998.3 hPa Calm   3.2 km/h 92% 0.0 mm 0 W/m2
00:32 9.2 °C 8 °C 998.0 hPa Calm   6.4 km/h 92% 0.0 mm 0 W/m2
00:37 9.2 °C 8 °C 998.0 hPa East 4.7 km/h 6.4 km/h 92% 0.0 mm 0 W/m2
00:42 9.1 °C 7.9 °C 998.0 hPa ESE 6.4 km/h 11.3 km/h 92% 0.0 mm 0 W/m2
00:47 8.8 °C 7.6 °C 998.0 hPa East 6.4 km/h 12.9 km/h 92% 0.0 mm 0 W/m2
00:52 8.5 °C 7.4 °C 998.0 hPa East 3.2 km/h 6.4 km/h 93% 0.0 mm 0 W/m2
00:57 8.3 °C 7.2 °C 997.6 hPa East 4.7 km/h 12.9 km/h 93% 0.0 mm 0 W/m2
01:02 8.2 °C 7.1 °C 997.6 hPa East 7.9 km/h 8 km/h 93% 0.0 mm 0 W/m2
01:07 8.2 °C 7.3 °C 997.6 hPa ENE 3.2 km/h 8 km/h 94% 0.0 mm 0 W/m2
01:12 8.1 °C 7.2 °C 997.6 hPa ENE 3.2 km/h 4.8 km/h 94% 0.0 mm 0 W/m2
01:17 8.1 °C 7.2 °C 997.6 hPa NE 3.2 km/h 8 km/h 94% 0.0 mm 0 W/m2
01:22 8.1 °C 7.2 °C 997.3 hPa NE 3.2 km/h 8 km/h 94% 0.0 mm 0 W/m2
01:27 8.1 °C 7.2 °C 997.3 hPa East 6.4 km/h 12.9 km/h 94% 0.0 mm 0 W/m2
01:32 8.2 °C 7.3 °C 997.3 hPa ENE 6.4 km/h 6.4 km/h 94% 0.0 mm 0 W/m2
01:37 8.2 °C 7.4 °C 997.3 hPa ESE 13 km/h 12.9 km/h 95% 0.0 mm 0 W/m2
01:42 8.3 °C 7.4 °C 997.0 hPa East 4.7 km/h 8 km/h 94% 0.0 mm 0 W/m2
01:47 8.3 °C 7.4 °C 997.0 hPa NE 3.2 km/h 11.3 km/h 94% 0.0 mm 0 W/m2
01:52 8.2 °C 7.3 °C 997.0 hPa Calm   6.4 km/h 94% 0.0 mm 0 W/m2
01:57 8.2 °C 7.4 °C 997.0 hPa ENE 4.7 km/h 11.3 km/h 95% 0.0 mm 0 W/m2
02:02 8.2 °C 7.3 °C 997.0 hPa NE 4.7 km/h 6.4 km/h 94% 0.0 mm 0 W/m2
02:07 8.2 °C 7.4 °C 997.0 hPa NNE 3.2 km/h 6.4 km/h 95% 0.0 mm 0 W/m2
02:12 8.2 °C 7.4 °C 997.0 hPa ESE 3.2 km/h 9.7 km/h 95% 0.0 mm 0 W/m2
02:17 8.3 °C 7.5 °C 996.6 hPa North 1.4 km/h 9.7 km/h 95% 0.0 mm 0 W/m2
02:22 8.3 °C 7.5 °C 996.6 hPa Calm   9.7 km/h 95% 0.0 mm 0 W/m2
02:27 8.3 °C 7.5 °C 996.6 hPa East 1.4 km/h 3.2 km/h 95% 0.0 mm 0 W/m2
02:33 8.3 °C 7.4 °C 996.6 hPa ENE 3.2 km/h 9.7 km/h 94% 0.2 mm 0 W/m2
02:38 8.2 °C 7.3 °C 996.6 hPa Calm     94% 0.2 mm 0 W/m2
02:43 8.1 °C 7.2 °C 996.3 hPa East 1.4 km/h 4.8 km/h 94% 0.2 mm 0 W/m2
02:48 8.1 °C 7.3 °C 996.3 hPa ENE 4.7 km/h 6.4 km/h 95% 0.2 mm 0 W/m2
02:53 8 °C 7.2 °C 996.3 hPa ENE 4.7 km/h 4.8 km/h 95% 0.2 mm 0 W/m2
02:58 7.9 °C 7.1 °C 995.9 hPa ESE 1.4 km/h 4.8 km/h 95% 0.2 mm 0 W/m2
03:03 7.9 °C 7.1 °C 995.9 hPa East 1.4 km/h 3.2 km/h 95% 0.2 mm 0 W/m2
03:08 7.9 °C 7.1 °C 995.9 hPa NE 1.4 km/h 6.4 km/h 95% 0.5 mm 0 W/m2
03:13 7.9 °C 7.1 °C 995.9 hPa NE 3.2 km/h 4.8 km/h 95% 0.5 mm 0 W/m2
03:18 8 °C 7.2 °C 995.6 hPa East 3.2 km/h 4.8 km/h 95% 1.0 mm 0 W/m2
03:23 8 °C 7.2 °C 995.6 hPa ENE 3.2 km/h 4.8 km/h 95% 1.0 mm 0 W/m2
03:28 8 °C 7.2 °C 995.3 hPa East 3.2 km/h 6.4 km/h 95% 1.3 mm 0 W/m2
03:33 8.1 °C 7.3 °C 995.6 hPa ESE 1.4 km/h 6.4 km/h 95% 1.0 mm 0 W/m2
03:38 8.1 °C 7.5 °C 995.3 hPa East 1.4 km/h 3.2 km/h 96% 1.3 mm 0 W/m2
03:43 8.1 °C 7.5 °C 995.3 hPa ESE 3.2 km/h 11.3 km/h 96% 1.3 mm 0 W/m2
03:48 8.1 °C 7.5 °C 995.3 hPa East 1.4 km/h 6.4 km/h 96% 1.5 mm 0 W/m2
03:53 8.1 °C 7.5 °C 995.3 hPa East 4.7 km/h 6.4 km/h 96% 1.5 mm 0 W/m2
03:58 8.2 °C 7.6 °C 995.3 hPa ESE 4.7 km/h 11.3 km/h 96% 1.5 mm 0 W/m2
04:03 8.2 °C 7.6 °C 995.3 hPa ENE 1.4 km/h 9.7 km/h 96% 1.8 mm 0 W/m2
04:08 8.2 °C 7.6 °C 995.3 hPa ENE 7.9 km/h 9.7 km/h 96% 1.5 mm 0 W/m2
04:13 8.3 °C 7.7 °C 994.9 hPa Calm   4.8 km/h 96% 1.5 mm 0 W/m2
04:18 8.3 °C 7.5 °C 994.9 hPa NE 6.4 km/h 9.7 km/h 95% 1.3 mm 0 W/m2
04:23 8.3 °C 7.5 °C 994.9 hPa East 6.4 km/h 8 km/h 95% 1.5 mm 0 W/m2
04:28 8.3 °C 7.5 °C 994.9 hPa East 6.4 km/h 12.9 km/h 95% 1.3 mm 0 W/m2
04:33 8.3 °C 7.5 °C 994.9 hPa ESE 3.2 km/h 11.3 km/h 95% 1.8 mm 0 W/m2
04:38 8.3 °C 7.5 °C 994.6 hPa East 7.9 km/h 8 km/h 95% 2.0 mm 0 W/m2
04:43 8.3 °C 7.5 °C 994.6 hPa East 9.7 km/h 12.9 km/h 95% 2.5 mm 0 W/m2
04:48 8.3 °C 7.5 °C 994.6 hPa ENE 4.7 km/h 11.3 km/h 95% 2.8 mm 0 W/m2
04:53 8.3 °C 7.5 °C 994.2 hPa ENE 3.2 km/h 11.3 km/h 95% 3.3 mm 0 W/m2
04:58 8.2 °C 7.4 °C 994.2 hPa ENE 3.2 km/h 4.8 km/h 95% 3.6 mm 0 W/m2
05:03 8.2 °C 7.4 °C 994.2 hPa East 3.2 km/h 11.3 km/h 95% 3.8 mm 0 W/m2
05:08 8.2 °C 7.4 °C 994.2 hPa ENE 3.2 km/h 4.8 km/h 95% 4.3 mm 0 W/m2
05:13 8.2 °C 7.4 °C 994.2 hPa ENE 3.2 km/h 6.4 km/h 95% 4.8 mm 0 W/m2
05:18 8.1 °C 7.5 °C 993.9 hPa Calm   1.6 km/h 96% 5.6 mm 0 W/m2
05:23 8.1 °C 7.5 °C 993.9 hPa ENE 1.4 km/h 3.2 km/h 96% 6.1 mm 0 W/m2
05:28 8 °C 7.2 °C 993.9 hPa Calm     95% 7.1 mm 0 W/m2
05:33 7.9 °C 7.1 °C 993.9 hPa Calm     95% 7.1 mm 0 W/m2
05:38 7.9 °C 7.3 °C 993.9 hPa Calm     96% 7.6 mm 0 W/m2
05:43 7.9 °C 7.3 °C 993.6 hPa Calm   1.6 km/h 96% 7.9 mm 0 W/m2
05:48 7.9 °C 7.3 °C 993.6 hPa Calm     96% 8.1 mm 0 W/m2
05:53 7.8 °C 7.2 °C 993.6 hPa Calm   1.6 km/h 96% 7.9 mm 0 W/m2
05:58 7.8 °C 7.2 °C 993.6 hPa Calm     96% 7.9 mm 0 W/m2
06:03 7.8 °C 7.2 °C 993.6 hPa Calm     96% 7.6 mm 0 W/m2
06:08 7.8 °C 7.2 °C 993.6 hPa East 1.4 km/h 3.2 km/h 96% 7.1 mm 0 W/m2
06:13 7.8 °C 7.2 °C 993.6 hPa Calm     96% 6.9 mm 0 W/m2
06:18 7.8 °C 7.2 °C 993.6 hPa Calm     96% 6.1 mm 0 W/m2
06:23 7.8 °C 7.2 °C 993.6 hPa Calm     96% 5.3 mm 0 W/m2
06:28 7.8 °C 7.2 °C 993.6 hPa North 1.4 km/h 3.2 km/h 96% 4.6 mm 0 W/m2
06:33 7.8 °C 7.2 °C 993.6 hPa Calm     96% 3.8 mm 0 W/m2
06:38 8.1 °C 7.7 °C 993.6 hPa WSW 1.4 km/h 8 km/h 97% 3.0 mm 0 W/m2
06:43 8.4 °C 8 °C 993.6 hPa NNW 6.4 km/h 14.5 km/h 97% 2.0 mm 0 W/m2
06:48 8.7 °C 8.3 °C 993.6 hPa NW 6.4 km/h 8 km/h 97% 1.5 mm 0 W/m2
06:53 8.8 °C 8.3 °C 993.6 hPa WNW 1.4 km/h 9.7 km/h 97% 1.0 mm 0 W/m2
06:58 8.9 °C 8.4 °C 993.9 hPa NW 6.4 km/h 12.9 km/h 97% 1.0 mm 0 W/m2
07:03 9.1 °C 8.6 °C 993.6 hPa WNW 6.4 km/h 14.5 km/h 97% 0.8 mm 0 W/m2
07:08 9.2 °C 8.7 °C 993.9 hPa NW 3.2 km/h 9.7 km/h 97% 0.5 mm 0 W/m2
07:13 9.3 °C 8.8 °C 993.9 hPa WSW 6.4 km/h 9.7 km/h 97% 0.5 mm 0 W/m2
07:18 9.3 °C 8.8 °C 993.9 hPa West 1.4 km/h 8 km/h 97% 0.5 mm 0 W/m2
07:23 9.4 °C 8.8 °C 993.9 hPa WNW 3.2 km/h 3.2 km/h 96% 0.5 mm 0 W/m2
07:28 9.4 °C 8.8 °C 994.2 hPa West 9.7 km/h 11.3 km/h 96% 0.5 mm 0 W/m2
07:33 9.5 °C 8.9 °C 994.2 hPa West 4.7 km/h 14.5 km/h 96% 0.5 mm 0 W/m2
07:38 9.6 °C 9 °C 994.2 hPa WNW 11.1 km/h 14.5 km/h 96% 0.5 mm 0 W/m2
07:43 9.6 °C 9 °C 994.2 hPa West 17.7 km/h 17.7 km/h 96% 0.5 mm 0 W/m2
07:48 9.7 °C 9.1 °C 994.2 hPa NW 9.7 km/h 16.1 km/h 96% 0.5 mm 0 W/m2
07:53 9.7 °C 9.1 °C 994.6 hPa West 11.1 km/h 19.3 km/h 96% 0.5 mm 0 W/m2
07:58 9.8 °C 9.2 °C 994.6 hPa WNW 7.9 km/h 16.1 km/h 96% 0.5 mm 0 W/m2
08:03 9.8 °C 9 °C 994.9 hPa SW 3.2 km/h 12.9 km/h 95% 0.5 mm 0 W/m2
08:08 9.8 °C 9 °C 994.9 hPa West 17.7 km/h 17.7 km/h 95% 0.5 mm 0 W/m2
08:13 9.8 °C 9 °C 994.9 hPa NW 7.9 km/h 16.1 km/h 95% 0.2 mm 0 W/m2
08:18 9.8 °C 9 °C 994.9 hPa WSW 7.9 km/h 19.3 km/h 95% 0.2 mm 0 W/m2
08:23 9.8 °C 9 °C 995.3 hPa WSW 7.9 km/h 12.9 km/h 95% 0.2 mm 0 W/m2
08:28 9.8 °C 9 °C 995.3 hPa WNW 13 km/h 24.1 km/h 95% 0.2 mm 0 W/m2
08:33 9.9 °C 9.1 °C 995.3 hPa West 13 km/h 20.9 km/h 95% 0.2 mm 0 W/m2
08:38 9.8 °C 8.9 °C 995.3 hPa West 13 km/h 17.7 km/h 94% 0.2 mm 0 W/m2
08:43 9.8 °C 8.9 °C 995.6 hPa NNW 6.4 km/h 12.9 km/h 94% 0.0 mm 0 W/m2
08:48 9.8 °C 8.9 °C 995.6 hPa West 3.2 km/h 9.7 km/h 94% 0.0 mm 0 W/m2
08:53 9.8 °C 8.9 °C 995.6 hPa West 6.4 km/h 17.7 km/h 94% 0.0 mm 5 W/m2
08:58 9.8 °C 8.9 °C 995.6 hPa NW 6.4 km/h 11.3 km/h 94% 0.0 mm 7 W/m2
09:03 9.8 °C 9 °C 995.6 hPa WNW 4.7 km/h 19.3 km/h 95% 0.0 mm 11 W/m2
09:08 9.8 °C 9 °C 995.9 hPa WNW 6.4 km/h 14.5 km/h 95% 0.0 mm 12 W/m2
09:13 9.8 °C 9 °C 995.9 hPa NW 6.4 km/h 16.1 km/h 95% 0.0 mm 9 W/m2
09:19 9.8 °C 9 °C 996.3 hPa WNW 3.2 km/h 9.7 km/h 95% 0.0 mm 7 W/m2
09:24 9.8 °C 9 °C 996.3 hPa NW 3.2 km/h 8 km/h 95% 0.0 mm 12 W/m2
09:29 9.8 °C 9 °C 996.3 hPa NW 1.4 km/h 8 km/h 95% 0.0 mm 25 W/m2
09:34 9.8 °C 9 °C 996.3 hPa WSW 6.4 km/h 11.3 km/h 95% 0.0 mm 46 W/m2
09:39 9.9 °C 9.1 °C 996.3 hPa NW 4.7 km/h 17.7 km/h 95% 0.2 mm 18 W/m2
09:44 9.9 °C 9.1 °C 996.3 hPa West 1.4 km/h 3.2 km/h 95% 0.5 mm 30 W/m2
09:49 9.9 °C 9.1 °C 996.3 hPa South 4.7 km/h 17.7 km/h 95% 0.5 mm 32 W/m2
09:54 10 °C 9.2 °C 996.6 hPa WSW 3.2 km/h 11.3 km/h 95% 0.5 mm 25 W/m2
09:59 10 °C 9.2 °C 996.3 hPa West 4.7 km/h 12.9 km/h 95% 0.5 mm 42 W/m2
10:04 10 °C 9.2 °C 996.6 hPa WSW 4.7 km/h 9.7 km/h 95% 0.5 mm 30 W/m2
10:09 10.1 °C 9.3 °C 996.6 hPa WNW 1.4 km/h 17.7 km/h 95% 0.5 mm 33 W/m2
10:14 10.2 °C 9.4 °C 996.6 hPa NNE 3.2 km/h 8 km/h 95% 0.5 mm 19 W/m2
10:19 10.2 °C 9.4 °C 996.3 hPa WNW 4.7 km/h 17.7 km/h 95% 0.5 mm 56 W/m2
10:24 10.2 °C 9.4 °C 996.6 hPa WNW 11.1 km/h 14.5 km/h 95% 0.5 mm 30 W/m2
10:29 10.3 °C 9.5 °C 996.6 hPa NNW 14.3 km/h 17.7 km/h 95% 0.5 mm 35 W/m2
10:34 10.4 °C 9.5 °C 996.6 hPa WNW 6.4 km/h 14.5 km/h 94% 0.5 mm 51 W/m2
10:39 10.4 °C 9.5 °C 996.6 hPa WSW 3.2 km/h 9.7 km/h 94% 0.5 mm 62 W/m2
10:44 10.4 °C 9.5 °C 996.6 hPa NNW 7.9 km/h 12.9 km/h 94% 0.2 mm 54 W/m2
10:49 10.5 °C 9.6 °C 996.6 hPa West 4.7 km/h 8 km/h 94% 0.2 mm 58 W/m2
10:54 10.6 °C 9.7 °C 996.6 hPa WNW 17.7 km/h 24.1 km/h 94% 0.2 mm 67 W/m2
10:59 10.7 °C 9.6 °C 996.6 hPa South 6.4 km/h 9.7 km/h 93% 0.2 mm 84 W/m2
11:04 10.7 °C 9.6 °C 996.6 hPa West 6.4 km/h 24.1 km/h 93% 0.2 mm 105 W/m2
11:09 10.8 °C 9.7 °C 996.6 hPa West 9.7 km/h 17.7 km/h 93% 0.0 mm 76 W/m2
11:14 10.8 °C 9.6 °C 996.6 hPa NW 3.2 km/h 22.5 km/h 92% 0.0 mm 98 W/m2
11:19 10.8 °C 9.6 °C 996.6 hPa NW 9.7 km/h 19.3 km/h 92% 0.0 mm 86 W/m2
11:24 10.8 °C 9.6 °C 996.6 hPa WSW 7.9 km/h 12.9 km/h 92% 0.0 mm 60 W/m2
11:29 10.8 °C 9.6 °C 996.6 hPa WNW 6.4 km/h 19.3 km/h 92% 0.0 mm 62 W/m2
11:34 10.8 °C 9.6 °C 996.6 hPa NNW 1.4 km/h 8 km/h 92% 0.0 mm 54 W/m2
11:39 10.8 °C 9.6 °C 996.6 hPa SSW 7.9 km/h 17.7 km/h 92% 0.0 mm 62 W/m2
11:44 10.8 °C 9.6 °C 996.6 hPa NW 1.4 km/h 11.3 km/h 92% 0.0 mm 44 W/m2
11:49 10.8 °C 9.6 °C 997.0 hPa WNW 4.7 km/h 29 km/h 92% 0.0 mm 39 W/m2
11:54 10.7 °C 9.5 °C 996.6 hPa West 6.4 km/h 16.1 km/h 92% 0.0 mm 47 W/m2
11:59 10.5 °C 9.3 °C 996.6 hPa WNW 1.4 km/h 20.9 km/h 92% 0.0 mm 62 W/m2
12:04 10.5 °C 9.4 °C 996.3 hPa NW 4.7 km/h 12.9 km/h 93% 0.0 mm 79 W/m2
12:09 10.5 °C 9.4 °C 996.3 hPa WNW 6.4 km/h 14.5 km/h 93% 0.0 mm 113 W/m2
12:14 10.6 °C 9.5 °C 996.3 hPa WNW 6.4 km/h 12.9 km/h 93% 0.0 mm 105 W/m2
12:19 10.6 °C 9.4 °C 996.3 hPa NNE 6.4 km/h 19.3 km/h 92% 0.0 mm 74 W/m2
12:24 10.6 °C 9.4 °C 996.3 hPa WSW 6.4 km/h 14.5 km/h 92% 0.0 mm 30 W/m2
12:29 10.7 °C 9.5 °C 996.3 hPa NW 6.4 km/h 16.1 km/h 92% 0.0 mm 39 W/m2
12:34 10.7 °C 9.5 °C 995.9 hPa West 4.7 km/h 22.5 km/h 92% 0.0 mm 47 W/m2
12:39 10.6 °C 9.4 °C 995.9 hPa West 13 km/h 22.5 km/h 92% 0.0 mm 35 W/m2
12:44 10.6 °C 9.4 °C 995.9 hPa West 4.7 km/h 16.1 km/h 92% 0.0 mm 28 W/m2
12:49 10.5 °C 9.3 °C 996.3 hPa NW 7.9 km/h 22.5 km/h 92% 0.0 mm 19 W/m2
12:54 10.5 °C 9.3 °C 996.3 hPa West 11.1 km/h 16.1 km/h 92% 0.0 mm 19 W/m2
12:59 10.4 °C 9.2 °C 995.9 hPa WNW 13 km/h 14.5 km/h 92% 0.2 mm 32 W/m2
13:04 10.3 °C 9.2 °C 995.9 hPa West 11.1 km/h 20.9 km/h 93% 0.2 mm 30 W/m2
13:09 10.3 °C 9.2 °C 995.9 hPa WSW 3.2 km/h 12.9 km/h 93% 0.2 mm 35 W/m2
13:14 10.4 °C 9.2 °C 995.9 hPa WNW 4.7 km/h 29 km/h 92% 0.2 mm 28 W/m2
13:19 10.4 °C 9.2 °C 995.9 hPa WSW 3.2 km/h 9.7 km/h 92% 0.2 mm 32 W/m2
13:24 10.5 °C 9.3 °C 995.9 hPa West 3.2 km/h 29 km/h 92% 0.2 mm 42 W/m2
13:29 10.5 °C 9.3 °C 995.9 hPa South 3.2 km/h 12.9 km/h 92% 0.2 mm 46 W/m2
13:34 10.5 °C 9.3 °C 995.9 hPa West 11.1 km/h 17.7 km/h 92% 0.2 mm 54 W/m2
13:39 10.6 °C 9.2 °C 995.9 hPa West 3.2 km/h 16.1 km/h 91% 0.2 mm 72 W/m2
13:44 10.6 °C 9.2 °C 995.9 hPa West 6.4 km/h 16.1 km/h 91% 0.2 mm 74 W/m2
13:49 10.7 °C 9.1 °C 995.9 hPa WNW 3.2 km/h 12.9 km/h 90% 0.2 mm 74 W/m2
13:54 10.7 °C 9.1 °C 995.9 hPa WNW 7.9 km/h 19.3 km/h 90% 0.2 mm 70 W/m2
13:59 10.7 °C 9 °C 996.3 hPa WNW 1.4 km/h 19.3 km/h 89% 0.0 mm 69 W/m2
14:04 10.7 °C 9 °C 996.6 hPa WNW 1.4 km/h 12.9 km/h 89% 0.0 mm 70 W/m2
14:09 10.8 °C 8.9 °C 996.6 hPa WSW 4.7 km/h 24.1 km/h 88% 0.0 mm 49 W/m2
14:14 10.7 °C 8.8 °C 995.9 hPa WSW 13 km/h 19.3 km/h 88% 0.0 mm 58 W/m2
14:19 10.7 °C 8.6 °C 995.9 hPa WNW 11.1 km/h 24.1 km/h 87% 0.0 mm 67 W/m2
14:24 10.8 °C 8.6 °C 995.9 hPa WNW 6.4 km/h 12.9 km/h 86% 0.0 mm 65 W/m2
14:29 10.8 °C 8.6 °C 995.9 hPa WNW 14.3 km/h 19.3 km/h 86% 0.0 mm 51 W/m2
14:34 10.8 °C 8.4 °C 996.3 hPa West 6.4 km/h 19.3 km/h 85% 0.0 mm 32 W/m2
15:17 10.4 °C 6.4 °C 996.6 hPa Calm     76% 0.0 mm 26 W/m2
15:22 10.4 °C 6.2 °C 996.6 hPa West 19.5 km/h 19.3 km/h 75% 0.0 mm 33 W/m2
15:29 10.3 °C 6.1 °C 996.3 hPa West 3.2 km/h 12.9 km/h 75% 0.0 mm 26 W/m2
15:34 10.3 °C 6.3 °C 996.6 hPa NW 4.7 km/h 14.5 km/h 76% 0.0 mm 28 W/m2
15:39 10.3 °C 6.4 °C 996.6 hPa West 6.4 km/h 14.5 km/h 77% 0.0 mm 25 W/m2
15:44 10.3 °C 6.4 °C 996.6 hPa WNW 3.2 km/h 20.9 km/h 77% 0.0 mm 23 W/m2
15:49 10.2 °C 6.3 °C 996.6 hPa South 19.5 km/h 19.3 km/h 77% 0.0 mm 23 W/m2
15:54 10.2 °C 6.3 °C 997.0 hPa West 9.7 km/h 20.9 km/h 77% 0.0 mm 21 W/m2
15:59 10.2 °C 6.2 °C 997.0 hPa WSW 7.9 km/h 20.9 km/h 76% 0.0 mm 21 W/m2
16:04 10.1 °C 6.3 °C 997.0 hPa WNW 4.7 km/h 20.9 km/h 77% 0.0 mm 19 W/m2
16:09 10.1 °C 6.3 °C 997.0 hPa West 3.2 km/h 17.7 km/h 77% 0.0 mm 18 W/m2
16:14 10 °C 6.3 °C 997.0 hPa West 11.1 km/h 20.9 km/h 78% 0.0 mm 16 W/m2
16:19 10 °C 6.5 °C 997.0 hPa West 4.7 km/h 12.9 km/h 79% 0.0 mm 14 W/m2
16:24 9.9 °C 6.4 °C 997.0 hPa West 3.2 km/h 11.3 km/h 79% 0.0 mm 12 W/m2
16:29 9.9 °C 6.6 °C 997.0 hPa WNW 1.4 km/h 16.1 km/h 80% 0.0 mm 11 W/m2
16:34 9.8 °C 6.5 °C 997.0 hPa West 11.1 km/h 11.3 km/h 80% 0.0 mm 7 W/m2
16:39 9.8 °C 6.5 °C 997.3 hPa West 16.3 km/h 20.9 km/h 80% 0.0 mm 5 W/m2
16:44 9.9 °C 6.4 °C 997.3 hPa West 11.1 km/h 16.1 km/h 79% 0.0 mm 5 W/m2
16:49 9.9 °C 6.4 °C 997.3 hPa NW 7.9 km/h 16.1 km/h 79% 0.0 mm 0 W/m2
16:54 10 °C 6.3 °C 997.3 hPa West 4.7 km/h 12.9 km/h 78% 0.0 mm 0 W/m2
16:59 10 °C 6.3 °C 997.3 hPa SSW 4.7 km/h 12.9 km/h 78% 0.0 mm 0 W/m2
17:04 10.1 °C 6.4 °C 997.3 hPa West 3.2 km/h 14.5 km/h 78% 0.0 mm 0 W/m2
17:09 10.1 °C 6.3 °C 997.6 hPa SW 6.4 km/h 19.3 km/h 77% 0.0 mm 0 W/m2
17:14 10.2 °C 6.3 °C 997.6 hPa North 7.9 km/h 12.9 km/h 77% 0.0 mm 0 W/m2
17:19 10.2 °C 6.3 °C 997.6 hPa West 3.2 km/h 16.1 km/h 77% 0.0 mm 0 W/m2
17:24 10.2 °C 6.3 °C 997.6 hPa NW 3.2 km/h 9.7 km/h 77% 0.0 mm 0 W/m2
17:29 10.2 °C 6.5 °C 997.6 hPa SW 4.7 km/h 17.7 km/h 78% 0.0 mm 0 W/m2
17:34 10.2 °C 6.7 °C 998.0 hPa NNW 3.2 km/h 11.3 km/h 79% 0.0 mm 0 W/m2
17:39 10.2 °C 6.9 °C 998.0 hPa WNW 9.7 km/h 20.9 km/h 80% 0.0 mm 0 W/m2
17:44 10.1 °C 7.2 °C 998.0 hPa NNW 6.4 km/h 9.7 km/h 82% 0.0 mm 0 W/m2
17:49 10.1 °C 7.2 °C 997.6 hPa West 6.4 km/h 8 km/h 82% 0.0 mm 0 W/m2
17:54 9.9 °C 7.3 °C 998.0 hPa North 6.4 km/h 8 km/h 84% 0.0 mm 0 W/m2
17:59 9.9 °C 7.3 °C 998.0 hPa NNE 7.9 km/h 8 km/h 84% 0.0 mm 0 W/m2
18:04 9.9 °C 7.5 °C 998.0 hPa NNW 14.3 km/h 16.1 km/h 85% 0.0 mm 0 W/m2
18:09 9.8 °C 7.6 °C 998.0 hPa NNW 3.2 km/h 17.7 km/h 86% 0.0 mm 0 W/m2
18:14 9.7 °C 7.5 °C 998.0 hPa SW 1.4 km/h 6.4 km/h 86% 0.0 mm 0 W/m2
18:19 9.6 °C 7.4 °C 998.0 hPa NW 13 km/h 17.7 km/h 86% 0.0 mm 0 W/m2
18:24 9.7 °C 7.5 °C 998.3 hPa West 9.7 km/h 12.9 km/h 86% 0.0 mm 0 W/m2
18:29 9.7 °C 7.5 °C 998.3 hPa West 9.7 km/h 22.5 km/h 86% 0.0 mm 0 W/m2
18:34 9.7 °C 7.5 °C 998.3 hPa West 17.7 km/h 17.7 km/h 86% 0.0 mm 0 W/m2
18:39 9.7 °C 7.3 °C 998.3 hPa SW 1.4 km/h 17.7 km/h 85% 0.0 mm 0 W/m2
18:44 9.8 °C 7.4 °C 998.0 hPa NW 1.4 km/h 27.4 km/h 85% 0.2 mm 0 W/m2
18:49 9.8 °C 7.2 °C 998.0 hPa NW 7.9 km/h 16.1 km/h 84% 0.2 mm 0 W/m2
18:54 9.8 °C 7.2 °C 998.3 hPa WNW 7.9 km/h 27.4 km/h 84% 0.2 mm 0 W/m2
18:59 9.8 °C 7.2 °C 998.0 hPa NW 27.4 km/h 30.6 km/h 84% 0.2 mm 0 W/m2
19:04 9.8 °C 7.4 °C 998.3 hPa WNW 14.3 km/h 20.9 km/h 85% 0.2 mm 0 W/m2
19:09 9.6 °C 7.4 °C 998.3 hPa WNW 11.1 km/h 20.9 km/h 86% 0.5 mm 0 W/m2
19:14 9.4 °C 7.3 °C 998.3 hPa WSW 11.1 km/h 25.7 km/h 87% 0.5 mm 0 W/m2
19:19 9.3 °C 7.4 °C 998.6 hPa West 9.7 km/h 17.7 km/h 88% 0.5 mm 0 W/m2
19:24 9.3 °C 7.2 °C 998.3 hPa NW 17.7 km/h 17.7 km/h 87% 0.5 mm 0 W/m2
19:29 9.3 °C 7.2 °C 998.6 hPa West 9.7 km/h 22.5 km/h 87% 0.5 mm 0 W/m2
19:34 9.4 °C 7.2 °C 998.3 hPa WNW 16.3 km/h 22.5 km/h 86% 0.5 mm 0 W/m2
19:39 9.5 °C 7.3 °C 998.3 hPa SW 11.1 km/h 19.3 km/h 86% 0.5 mm 0 W/m2
19:44 9.6 °C 7.2 °C 998.6 hPa WSW 17.7 km/h 22.5 km/h 85% 0.5 mm 0 W/m2
19:49 9.6 °C 7.4 °C 998.6 hPa WNW 11.1 km/h 16.1 km/h 86% 0.5 mm 0 W/m2
19:54 9.5 °C 7.3 °C 998.6 hPa WNW 13 km/h 24.1 km/h 86% 0.5 mm 0 W/m2
19:59 9.5 °C 7.3 °C 999.0 hPa West 20.9 km/h 27.4 km/h 86% 0.5 mm 0 W/m2
20:04 9.4 °C 7.3 °C 998.6 hPa West 6.4 km/h 20.9 km/h 87% 0.5 mm 0 W/m2
20:09 9.3 °C 7.2 °C 998.6 hPa NW 6.4 km/h 24.1 km/h 87% 0.2 mm 0 W/m2
20:14 9.3 °C 7.2 °C 999.0 hPa West 16.3 km/h 17.7 km/h 87% 0.0 mm 0 W/m2
20:19 9.3 °C 7.2 °C 999.0 hPa WSW 27.4 km/h 33.8 km/h 87% 0.0 mm 0 W/m2
20:24 9.4 °C 7.3 °C 999.0 hPa WNW 13 km/h 30.6 km/h 87% 0.0 mm 0 W/m2
20:29 9.4 °C 7.3 °C 998.6 hPa West 3.2 km/h 33.8 km/h 87% 0.0 mm 0 W/m2
20:34 9.4 °C 7.3 °C 998.6 hPa West 16.3 km/h 22.5 km/h 87% 0.0 mm 0 W/m2
20:39 9.4 °C 7.3 °C 998.6 hPa WNW 19.5 km/h 22.5 km/h 87% 0.0 mm 0 W/m2
20:44 9.4 °C 7.3 °C 999.0 hPa WNW 11.1 km/h 30.6 km/h 87% 0.0 mm 0 W/m2
20:49 9.4 °C 7.3 °C 999.0 hPa West 16.3 km/h 33.8 km/h 87% 0.0 mm 0 W/m2
20:54 9.4 °C 7.3 °C 999.0 hPa WNW 13 km/h 24.1 km/h 87% 0.0 mm 0 W/m2
20:59 9.4 °C 7.3 °C 999.3 hPa WSW 7.9 km/h 27.4 km/h 87% 0.0 mm 0 W/m2
21:04 9.4 °C 7.3 °C 999.3 hPa West 19.5 km/h 37 km/h 87% 0.0 mm 0 W/m2
21:09 9.3 °C 7.2 °C 999.3 hPa West 13 km/h 32.2 km/h 87% 0.0 mm 0 W/m2
21:14 9.3 °C 7.2 °C 999.7 hPa WNW 9.7 km/h 19.3 km/h 87% 0.0 mm 0 W/m2
21:19 9.3 °C 7.4 °C 999.7 hPa West 20.9 km/h 33.8 km/h 88% 0.0 mm 0 W/m2
21:24 9.2 °C 7.3 °C 999.7 hPa WNW 16.3 km/h 27.4 km/h 88% 0.0 mm 0 W/m2
21:29 9.1 °C 7.4 °C 1000.0 hPa WNW 13 km/h 25.7 km/h 89% 0.0 mm 0 W/m2
21:34 8.9 °C 7.3 °C 1000.0 hPa WSW 17.7 km/h 32.2 km/h 90% 0.0 mm 0 W/m2
21:39 8.8 °C 7.2 °C 1000.0 hPa WNW 14.3 km/h 25.7 km/h 90% 0.0 mm 0 W/m2
21:44 8.7 °C 7.3 °C 1000.3 hPa West 25.9 km/h 35.4 km/h 91% 0.0 mm 0 W/m2
21:49 8.7 °C 7.3 °C 1000.3 hPa WNW 16.3 km/h 24.1 km/h 91% 0.2 mm 0 W/m2
21:54 8.6 °C 7.2 °C 1000.7 hPa NW 6.4 km/h 35.4 km/h 91% 0.2 mm 0 W/m2
21:59 8.6 °C 7.4 °C 1000.7 hPa West 13 km/h 27.4 km/h 92% 0.2 mm 0 W/m2
22:04 8.5 °C 7.3 °C 1000.7 hPa WNW 3.2 km/h 19.3 km/h 92% 0.2 mm 0 W/m2
22:09 8.4 °C 7.2 °C 1000.7 hPa NW 7.9 km/h 22.5 km/h 92% 0.2 mm 0 W/m2
22:14 8.4 °C 7.3 °C 1001.0 hPa NNW 24.1 km/h 29 km/h 93% 0.5 mm 0 W/m2
22:19 8.4 °C 7.3 °C 1001.0 hPa West 14.3 km/h 25.7 km/h 93% 0.5 mm 0 W/m2
22:24 8.3 °C 7.2 °C 1001.4 hPa WSW 16.3 km/h 33.8 km/h 93% 0.5 mm 0 W/m2
22:29 8.3 °C 7.2 °C 1001.4 hPa West 16.3 km/h 20.9 km/h 93% 0.5 mm 0 W/m2
22:34 8.3 °C 7.2 °C 1001.4 hPa West 13 km/h 24.1 km/h 93% 0.5 mm 0 W/m2
22:39 8.3 °C 7.2 °C 1001.4 hPa West 13 km/h 14.5 km/h 93% 0.5 mm 0 W/m2
22:45 8.3 °C 7.2 °C 1001.4 hPa WNW 19.5 km/h 29 km/h 93% 0.5 mm 0 W/m2
22:50 8.3 °C 7.2 °C 1001.7 hPa WNW 19.5 km/h 22.5 km/h 93% 0.5 mm 0 W/m2
22:55 8.3 °C 7.2 °C 1001.7 hPa WNW 7.9 km/h 19.3 km/h 93% 0.5 mm 0 W/m2
23:00 8.4 °C 7.3 °C 1001.7 hPa WNW 11.1 km/h 25.7 km/h 93% 0.5 mm 0 W/m2
23:05 8.6 °C 7.5 °C 1001.7 hPa West 14.3 km/h 17.7 km/h 93% 0.5 mm 0 W/m2
23:10 8.6 °C 7.5 °C 1002.0 hPa SW 9.7 km/h 22.5 km/h 93% 0.5 mm 0 W/m2
23:15 8.6 °C 7.5 °C 1002.0 hPa West 17.7 km/h 30.6 km/h 93% 0.2 mm 0 W/m2
23:20 8.6 °C 7.5 °C 1002.0 hPa West 14.3 km/h 30.6 km/h 93% 0.2 mm 0 W/m2
23:25 8.6 °C 7.5 °C 1002.4 hPa WSW 13 km/h 27.4 km/h 93% 0.2 mm 0 W/m2
23:30 8.6 °C 7.5 °C 1002.4 hPa West 17.7 km/h 29 km/h 93% 0.2 mm 0 W/m2
23:35 8.6 °C 7.5 °C 1002.4 hPa West 16.3 km/h 32.2 km/h 93% 0.2 mm 0 W/m2
23:40 8.6 °C 7.4 °C 1002.4 hPa SW 13 km/h 19.3 km/h 92% 0.2 mm 0 W/m2
23:45 8.7 °C 7.5 °C 1002.4 hPa NNW 14.3 km/h 20.9 km/h 92% 0.0 mm 0 W/m2
23:50 8.7 °C 7.5 °C 1002.7 hPa West 13 km/h 22.5 km/h 92% 0.0 mm 0 W/m2
23:55 8.8 °C 7.4 °C 1002.7 hPa WSW 16.3 km/h 19.3 km/h 91% 0.0 mm 0 W/m2
Juneau County Weather
Compliments of Weather Underground - 4 mb